Terminal Aerodrome Forecast
Issued by NWS

Home | Current Version | Previous Version | Text Only | Print | Product List | Glossary On
Versions: 1 2 3 4 5 6 7 8 9 10 11 12
000
FTUS42 TJSJ 302300
TAFJPS
TAF
TJPS 302333Z 0100/0124 05004KT P6SM SKC
     FM011330 15008KT P6SM FEW030
     FM012330 09007KT P6SM FEW030 SCT070
      AMD NOT SKED TIL 010300=

USA.gov is the U.S. government's official web portal to all federal, state and local government web resources and services.